createdAt,value
2022-08-07T00:01:44.520Z,32.32
2022-08-07T00:04:06.025Z,32.79
2022-08-07T00:06:33.876Z,32.76
2022-08-07T00:09:16.386Z,33.41
2022-08-07T00:11:54.097Z,33.15
2022-08-07T00:14:25.433Z,33.31
2022-08-07T00:16:58.333Z,32.88
2022-08-07T00:19:25.917Z,33.18
2022-08-07T00:21:56.126Z,32.88
2022-08-07T00:24:24.390Z,33.00
2022-08-07T00:26:58.864Z,32.87
2022-08-07T00:29:32.650Z,33.15
2022-08-07T00:31:59.697Z,33.04
2022-08-07T00:34:27.071Z,33.48
2022-08-07T00:36:56.355Z,32.96
2022-08-07T00:39:23.089Z,32.97
2022-08-07T00:42:02.580Z,33.13
2022-08-07T00:44:33.174Z,33.05
2022-08-07T00:47:03.669Z,32.83
2022-08-07T00:50:21.132Z,33.75
2022-08-07T00:52:20.316Z,33.24
2022-08-07T00:54:53.833Z,33.38
2022-08-07T00:57:23.052Z,33.44
2022-08-07T00:59:52.826Z,33.65
2022-08-07T01:02:28.729Z,33.61
2022-08-07T01:04:59.219Z,33.93
2022-08-07T01:07:28.241Z,33.67
2022-08-07T01:10:05.862Z,33.86
2022-08-07T01:12:44.785Z,34.10
2022-08-07T01:15:20.767Z,33.97
2022-08-07T01:17:50.165Z,34.17
2022-08-07T01:20:17.683Z,34.11
2022-08-07T01:22:54.354Z,34.05
2022-08-07T01:25:53.564Z,34.03
2022-08-07T01:28:21.768Z,34.21
2022-08-07T01:30:52.580Z,34.16
2022-08-07T01:33:22.621Z,33.99
2022-08-07T01:35:54.184Z,33.95
2022-08-07T01:38:32.679Z,34.45
2022-08-07T01:41:09.451Z,34.53
2022-08-07T01:43:38.500Z,34.03
2022-08-07T01:46:08.247Z,34.69
2022-08-07T01:48:46.779Z,34.65
2022-08-07T01:52:01.153Z,35.16
2022-08-07T01:54:19.297Z,35.94
2022-08-07T01:57:06.845Z,35.93
2022-08-07T01:59:56.697Z,36.00
2022-08-07T02:03:11.440Z,35.91
2022-08-07T02:05:42.806Z,36.40
2022-08-07T02:08:18.050Z,35.83
2022-08-07T02:10:54.860Z,35.89
2022-08-07T02:13:56.617Z,35.96
2022-08-07T02:16:12.142Z,35.82
2022-08-07T02:18:46.871Z,35.95
2022-08-07T02:21:16.373Z,35.99
2022-08-07T02:23:44.925Z,35.76
2022-08-07T02:26:32.676Z,35.82
2022-08-07T02:29:00.283Z,36.35
2022-08-07T02:31:29.454Z,35.95
2022-08-07T02:34:03.636Z,35.97
2022-08-07T02:36:43.749Z,35.67
2022-08-07T02:39:17.214Z,35.34
2022-08-07T02:42:03.630Z,35.11
2022-08-07T02:44:42.248Z,35.34
2022-08-07T02:47:29.177Z,35.59
2022-08-07T02:50:11.548Z,35.62
2022-08-07T02:52:44.069Z,35.91
2022-08-07T02:56:02.121Z,35.79
2022-08-07T02:58:21.750Z,36.04
2022-08-07T03:00:51.648Z,35.77
2022-08-07T03:03:22.694Z,35.98
2022-08-07T03:05:54.062Z,36.33
2022-08-07T03:08:26.996Z,36.06
2022-08-07T03:10:58.010Z,36.34
2022-08-07T03:13:39.312Z,36.18
2022-08-07T03:16:18.355Z,36.21
2022-08-07T03:18:50.623Z,35.97
2022-08-07T03:21:19.245Z,36.25
2022-08-07T03:24:21.192Z,37.18
2022-08-07T03:26:43.066Z,36.24
2022-08-07T03:29:20.826Z,36.31
2022-08-07T03:31:49.889Z,36.02
2022-08-07T03:34:22.553Z,36.10
2022-08-07T03:36:57.233Z,36.99
2022-08-07T03:39:46.474Z,36.91
2022-08-07T03:42:13.363Z,36.52
2022-08-07T03:44:41.780Z,36.19
2022-08-07T03:47:13.330Z,36.41
2022-08-07T03:49:47.681Z,36.48
2022-08-07T03:52:22.867Z,36.65
2022-08-07T03:55:06.099Z,36.64
2022-08-07T03:58:35.250Z,36.49
2022-08-07T04:00:30.586Z,36.77
2022-08-07T04:03:03.851Z,36.86
2022-08-07T04:05:40.783Z,37.55
2022-08-07T04:08:16.186Z,37.00
2022-08-07T04:10:54.741Z,36.71
2022-08-07T04:14:09.369Z,36.93
2022-08-07T04:16:31.311Z,37.04
2022-08-07T04:19:04.399Z,37.10
2022-08-07T04:21:59.629Z,36.63
2022-08-07T04:24:39.233Z,37.15
2022-08-07T04:27:20.713Z,36.80
2022-08-07T04:30:01.963Z,36.77
2022-08-07T04:32:58.098Z,36.69
2022-08-07T04:35:27.298Z,37.04
2022-08-07T04:38:03.951Z,36.56
2022-08-07T04:40:35.872Z,36.84
2022-08-07T04:43:11.022Z,36.69
2022-08-07T04:46:01.179Z,36.84
2022-08-07T04:49:14.959Z,37.02
2022-08-07T04:52:01.744Z,36.86
2022-08-07T04:54:50.590Z,36.62
2022-08-07T04:58:09.904Z,37.07
2022-08-07T05:00:50.008Z,36.95
2022-08-07T05:04:06.832Z,36.72
2022-08-07T05:06:56.084Z,36.92
2022-08-07T05:09:46.303Z,36.70
2022-08-07T05:12:26.729Z,36.45
2022-08-07T05:15:04.173Z,36.47
2022-08-07T05:17:50.937Z,36.70
2022-08-07T05:20:24.977Z,36.41
2022-08-07T05:22:57.097Z,36.95
2022-08-07T05:26:04.140Z,37.10
2022-08-07T05:28:22.553Z,36.63
2022-08-07T05:30:53.241Z,36.87
2022-08-07T05:33:21.661Z,36.83
2022-08-07T05:35:50.909Z,36.49
2022-08-07T05:38:59.873Z,36.46
2022-08-07T05:41:14.504Z,36.25
2022-08-07T05:44:08.354Z,36.57
2022-08-07T05:46:36.449Z,36.83
2022-08-07T05:49:11.814Z,36.98
2022-08-07T05:51:42.519Z,37.04
2022-08-07T05:54:30.267Z,37.08
2022-08-07T05:56:58.701Z,37.15
2022-08-07T05:59:27.393Z,36.93
2022-08-07T06:02:00.279Z,37.07
2022-08-07T06:04:30.196Z,37.08
2022-08-07T06:07:03.812Z,37.01
2022-08-07T06:09:44.965Z,36.89
2022-08-07T06:12:31.868Z,36.98
2022-08-07T06:15:05.773Z,37.29
2022-08-07T06:17:38.063Z,37.66
2022-08-07T06:20:12.320Z,37.47
2022-08-07T06:23:04.085Z,37.36
2022-08-07T06:25:54.504Z,37.13
2022-08-07T06:28:27.211Z,37.23
2022-08-07T06:30:56.023Z,37.26
2022-08-07T06:33:23.390Z,37.35
2022-08-07T06:36:12.296Z,37.83
2022-08-07T06:38:58.835Z,37.37
2022-08-07T06:42:01.896Z,37.68
2022-08-07T06:44:51.740Z,37.54
2022-08-07T06:47:21.112Z,37.59
2022-08-07T06:49:51.503Z,37.54
2022-08-07T06:52:36.063Z,37.90
2022-08-07T06:55:32.757Z,38.14
2022-08-07T06:58:10.195Z,37.94
2022-08-07T07:00:46.282Z,37.38
2022-08-07T07:03:14.347Z,37.64
2022-08-07T07:06:05.156Z,37.67
2022-08-07T07:08:34.097Z,38.13
2022-08-07T07:11:13.303Z,37.77
2022-08-07T07:13:58.600Z,38.28
2022-08-07T07:16:31.330Z,38.49
2022-08-07T07:19:34.042Z,38.83
2022-08-07T07:22:04.622Z,38.27
2022-08-07T07:24:42.993Z,38.51
2022-08-07T07:27:17.031Z,38.74
2022-08-07T07:30:08.738Z,38.82
2022-08-07T07:32:40.789Z,39.31
2022-08-07T07:35:11.218Z,39.24
2022-08-07T07:37:44.377Z,38.99
2022-08-07T07:40:16.217Z,39.01
2022-08-07T07:42:47.209Z,39.05
2022-08-07T07:45:19.578Z,39.19
2022-08-07T07:47:53.631Z,39.00
2022-08-07T07:50:36.533Z,39.07
2022-08-07T07:53:20.578Z,38.89
2022-08-07T07:56:00.428Z,38.85
2022-08-07T07:58:40.229Z,38.62
2022-08-07T08:02:02.085Z,38.50
2022-08-07T08:04:10.199Z,37.99
2022-08-07T08:06:40.661Z,37.96
2022-08-07T08:09:22.993Z,38.14
2022-08-07T08:12:01.833Z,38.28
2022-08-07T08:14:36.650Z,38.56
2022-08-07T08:17:32.382Z,38.19
2022-08-07T08:20:18.573Z,37.94
2022-08-07T08:23:10.662Z,37.36
2022-08-07T08:25:58.233Z,36.83
2022-08-07T08:28:38.552Z,36.56
2022-08-07T08:31:14.832Z,36.48
2022-08-07T08:33:49.130Z,36.40
2022-08-07T08:36:25.461Z,36.46
2022-08-07T08:38:54.527Z,36.56
2022-08-07T08:41:56.894Z,35.48
2022-08-07T08:44:29.158Z,35.59
2022-08-07T08:47:10.035Z,35.25
2022-08-07T08:50:05.168Z,35.80
2022-08-07T08:52:40.789Z,36.15
2022-08-07T08:55:54.414Z,35.45
2022-08-07T08:58:28.637Z,35.36
2022-08-07T09:01:15.216Z,35.36
2022-08-07T09:03:53.054Z,35.33
2022-08-07T09:06:27.327Z,35.22
2022-08-07T09:09:40.779Z,35.21
2022-08-07T09:12:53.133Z,35.78
2022-08-07T09:16:23.338Z,35.22
2022-08-07T09:18:53.179Z,34.14
2022-08-07T09:21:33.838Z,35.19
2022-08-07T09:30:02.304Z,34.30
2022-08-07T09:31:39.975Z,34.25
2022-08-07T09:34:26.178Z,34.22
2022-08-07T09:36:59.871Z,34.44
2022-08-07T09:40:04.878Z,34.24
2022-08-07T09:43:10.962Z,34.07
2022-08-07T09:47:51.179Z,34.07
2022-08-07T09:50:00.665Z,33.90
2022-08-07T09:56:37.262Z,33.62
2022-08-07T09:59:17.644Z,33.27
2022-08-07T10:02:19.123Z,32.49
2022-08-07T10:05:59.461Z,33.05
2022-08-07T10:08:56.198Z,33.02
2022-08-07T10:12:02.505Z,33.23
2022-08-07T10:14:31.337Z,31.92
2022-08-07T10:17:24.052Z,32.91
2022-08-07T10:20:13.004Z,32.54
2022-08-07T10:23:07.536Z,32.24
2022-08-07T10:26:13.739Z,30.97
2022-08-07T10:29:06.316Z,31.87
2022-08-07T10:31:46.058Z,31.79
2022-08-07T10:34:40.193Z,31.54
2022-08-07T10:37:12.323Z,31.33
2022-08-07T10:39:41.959Z,31.17
2022-08-07T10:42:47.409Z,31.07
2022-08-07T10:45:45.366Z,30.58
2022-08-07T10:48:48.665Z,31.04
2022-08-07T10:51:57.480Z,30.35
2022-08-07T10:54:15.505Z,30.42
2022-08-07T10:57:04.477Z,30.79
2022-08-07T10:59:48.378Z,30.87
2022-08-07T11:02:34.167Z,30.26
2022-08-07T11:05:24.089Z,30.40
2022-08-07T11:08:30.467Z,31.49
2022-08-07T11:11:09.559Z,31.08
2022-08-07T11:14:44.914Z,30.45
2022-08-07T11:16:41.123Z,30.28
2022-08-07T11:19:21.803Z,30.79
2022-08-07T11:22:03.038Z,30.89
2022-08-07T11:24:53.599Z,30.18
2022-08-07T11:28:03.246Z,29.88
2022-08-07T11:30:41.662Z,30.53
2022-08-07T11:33:19.408Z,30.31
2022-08-07T11:36:25.484Z,30.58
2022-08-07T11:40:00.049Z,29.50
2022-08-07T11:42:44.937Z,30.09
2022-08-07T11:45:23.634Z,30.00
2022-08-07T11:47:59.582Z,28.62
2022-08-07T11:51:00.157Z,30.04
2022-08-07T11:53:37.429Z,29.46
2022-08-07T11:56:26.348Z,29.61
2022-08-07T11:59:05.493Z,29.50
2022-08-07T12:02:30.628Z,29.11
2022-08-07T12:05:28.587Z,28.47
2022-08-07T12:08:25.976Z,29.32
2022-08-07T12:11:20.998Z,28.93
2022-08-07T12:13:52.075Z,29.76
2022-08-07T12:16:30.270Z,29.44
2022-08-07T12:19:35.655Z,29.41
2022-08-07T12:22:58.569Z,29.95
2022-08-07T12:26:03.423Z,29.16
2022-08-07T12:28:59.303Z,29.02
2022-08-07T12:36:05.630Z,28.84
2022-08-07T12:38:42.750Z,29.14
2022-08-07T12:41:14.656Z,28.31
2022-08-07T12:44:03.769Z,28.57
2022-08-07T12:46:48.739Z,28.63
2022-08-07T12:50:04.672Z,27.79
2022-08-07T12:52:59.447Z,27.94
2022-08-07T12:56:10.043Z,27.79
2022-08-07T12:58:40.015Z,28.14
2022-08-07T13:01:32.616Z,28.21
2022-08-07T13:04:34.018Z,27.72
2022-08-07T13:08:14.465Z,27.87
2022-08-07T13:10:51.427Z,27.62
2022-08-07T13:13:58.281Z,26.69
2022-08-07T13:16:25.155Z,27.08
2022-08-07T13:19:21.902Z,26.55
2022-08-07T13:22:26.881Z,26.69
2022-08-07T13:24:59.157Z,27.47
2022-08-07T13:28:13.701Z,27.77
2022-08-07T13:30:39.846Z,27.23
2022-08-07T13:34:29.735Z,26.80
2022-08-07T13:36:21.167Z,26.45
2022-08-07T13:39:01.250Z,26.46
2022-08-07T13:41:41.651Z,26.59
2022-08-07T13:44:13.123Z,26.85
2022-08-07T13:46:49.538Z,26.75
2022-08-07T13:50:33.460Z,27.48
2022-08-07T13:52:30.669Z,26.64
2022-08-07T13:59:27.235Z,26.90
2022-08-07T14:02:08.433Z,26.58
2022-08-07T14:04:49.592Z,26.70
2022-08-07T14:12:11.318Z,25.41
2022-08-07T14:14:43.529Z,25.05
2022-08-07T14:17:32.366Z,25.79
2022-08-07T14:20:40.914Z,25.14
2022-08-07T14:23:18.017Z,25.28
2022-08-07T14:26:30.376Z,25.79
2022-08-07T14:29:06.021Z,24.51
2022-08-07T14:31:56.091Z,25.19
2022-08-07T14:50:06.042Z,25.45
2022-08-07T15:00:47.807Z,24.72
2022-08-07T15:03:52.986Z,24.46
2022-08-07T15:06:25.144Z,24.17
2022-08-07T15:08:54.922Z,24.44
2022-08-07T15:11:48.851Z,24.31
2022-08-07T15:14:21.359Z,24.44
2022-08-07T15:16:54.960Z,23.83
2022-08-07T15:20:31.381Z,24.31
2022-08-07T15:25:04.082Z,24.73
2022-08-07T15:26:28.756Z,24.91
2022-08-07T15:30:03.602Z,24.81
2022-08-07T15:32:01.696Z,24.60
2022-08-07T15:34:37.849Z,24.58
2022-08-07T15:37:27.774Z,24.82
2022-08-07T15:39:58.343Z,24.55
2022-08-07T15:42:42.420Z,24.33
2022-08-07T15:45:22.477Z,23.92
2022-08-07T15:49:03.484Z,23.93
2022-08-07T15:54:15.606Z,24.02
2022-08-07T15:56:42.650Z,23.78
2022-08-07T15:59:16.264Z,23.93
2022-08-07T16:02:01.968Z,24.80
2022-08-07T16:04:31.593Z,24.47
2022-08-07T16:08:32.814Z,24.72
2022-08-07T16:10:14.851Z,23.83
2022-08-07T16:13:04.700Z,24.51
2022-08-07T16:15:57.676Z,24.62
2022-08-07T16:18:50.808Z,24.32
2022-08-07T16:22:01.794Z,24.44
2022-08-07T16:24:37.137Z,24.08
2022-08-07T16:27:24.547Z,24.16
2022-08-07T16:30:31.226Z,24.38
2022-08-07T16:34:02.282Z,24.28
2022-08-07T16:36:20.010Z,24.95
2022-08-07T16:39:14.825Z,24.55
2022-08-07T16:42:12.588Z,24.02
2022-08-07T16:46:20.959Z,24.46
2022-08-07T16:47:56.907Z,24.28
2022-08-07T16:50:38.878Z,24.26
2022-08-07T16:54:02.639Z,24.15
2022-08-07T16:56:26.200Z,24.61
2022-08-07T16:59:58.063Z,25.24
2022-08-07T17:27:00.471Z,25.44
2022-08-07T17:30:13.938Z,25.60
2022-08-07T17:34:08.678Z,25.41
2022-08-07T17:36:13.677Z,25.52
2022-08-07T17:38:57.080Z,25.43
2022-08-07T17:42:02.257Z,25.56
2022-08-07T17:44:43.909Z,25.06
2022-08-07T17:47:54.034Z,25.16
2022-08-07T17:52:00.861Z,24.92
2022-08-07T17:58:48.242Z,25.87
2022-08-07T18:01:58.109Z,25.79
2022-08-07T18:04:36.794Z,25.65
2022-08-07T18:07:20.606Z,25.15
2022-08-07T18:10:07.516Z,25.06
2022-08-07T18:13:16.457Z,25.48
2022-08-07T18:16:08.144Z,24.88
2022-08-07T18:21:02.565Z,25.17
2022-08-07T18:22:00.545Z,25.13
2022-08-07T18:24:36.047Z,24.86
2022-08-07T18:27:20.940Z,25.19
2022-08-07T18:30:06.866Z,25.36
2022-08-07T18:33:15.175Z,25.26
2022-08-07T18:36:06.040Z,25.51
2022-08-07T18:40:07.321Z,25.10
2022-08-07T18:42:12.957Z,25.28
2022-08-07T18:45:39.816Z,25.25
2022-08-07T18:50:05.244Z,25.34
2022-08-07T18:52:34.656Z,25.14
2022-08-07T18:55:42.501Z,25.45
2022-08-07T18:58:15.046Z,27.86
2022-08-07T19:00:54.423Z,28.35
2022-08-07T19:03:37.885Z,28.30
2022-08-07T19:06:49.253Z,28.67
2022-08-07T19:09:55.857Z,28.24
2022-08-07T19:12:18.915Z,27.87
2022-08-07T19:15:01.544Z,28.60
2022-08-07T19:18:11.518Z,28.78
2022-08-07T19:21:44.298Z,29.25
2022-08-07T19:24:30.476Z,29.67
2022-08-07T19:28:58.071Z,29.45
2022-08-07T19:30:56.025Z,29.76
2022-08-07T19:32:46.186Z,29.61
2022-08-07T19:35:22.302Z,29.95
2022-08-07T19:37:57.751Z,30.24
2022-08-07T19:40:33.401Z,30.25
2022-08-07T19:43:12.816Z,30.33
2022-08-07T19:46:06.016Z,29.91
2022-08-07T19:48:42.920Z,29.82
2022-08-07T19:51:20.237Z,30.30
2022-08-07T19:54:33.036Z,30.00
2022-08-07T19:57:51.991Z,30.52
2022-08-07T19:59:40.575Z,30.25
2022-08-07T20:02:19.062Z,31.17
2022-08-07T20:04:49.018Z,30.99
2022-08-07T20:07:23.683Z,31.01
2022-08-07T20:10:36.070Z,31.23
2022-08-07T20:12:43.083Z,31.02
2022-08-07T20:15:19.059Z,30.68
2022-08-07T20:18:01.383Z,30.81
2022-08-07T20:20:32.001Z,31.09
2022-08-07T20:23:23.107Z,31.16
2022-08-07T20:25:53.225Z,32.44
2022-08-07T20:28:20.782Z,31.67
2022-08-07T20:30:58.268Z,31.25
2022-08-07T20:33:37.803Z,31.44
2022-08-07T20:36:07.080Z,32.44
2022-08-07T20:38:34.690Z,32.27
2022-08-07T20:41:03.896Z,32.73
2022-08-07T20:43:32.963Z,33.15
2022-08-07T20:46:27.102Z,33.13
2022-08-07T20:49:55.185Z,32.15
2022-08-07T20:51:40.401Z,32.56
2022-08-07T20:54:30.095Z,32.45
2022-08-07T20:57:04.777Z,33.30
2022-08-07T21:00:07.319Z,33.84
2022-08-07T21:02:40.028Z,32.91
2022-08-07T21:05:16.240Z,33.68
2022-08-07T21:07:49.509Z,33.77
2022-08-07T21:10:29.785Z,34.16
2022-08-07T21:13:00.799Z,33.97
2022-08-07T21:15:58.592Z,34.33
2022-08-07T21:18:28.061Z,35.37
2022-08-07T21:20:56.627Z,34.15
2022-08-07T21:23:49.455Z,35.13
2022-08-07T21:26:43.796Z,34.77
2022-08-07T21:29:30.803Z,34.61
2022-08-07T21:32:47.734Z,34.96
2022-08-07T21:35:18.502Z,34.89
2022-08-07T21:38:44.156Z,34.77
2022-08-07T21:41:38.238Z,34.14
2022-08-07T21:44:32.397Z,34.36
2022-08-07T21:47:17.415Z,34.81
2022-08-07T21:50:03.147Z,35.17
2022-08-07T21:52:54.526Z,35.96
2022-08-07T21:55:29.755Z,35.45
2022-08-07T21:58:08.317Z,35.01
2022-08-07T22:00:40.875Z,35.38
2022-08-07T22:03:16.566Z,35.76
2022-08-07T22:05:52.110Z,35.40
2022-08-07T22:08:22.073Z,34.95
2022-08-07T22:10:54.874Z,35.14
2022-08-07T22:13:50.389Z,35.00
2022-08-07T22:16:44.595Z,35.89
2022-08-07T22:19:17.891Z,35.76
2022-08-07T22:22:05.368Z,35.77
2022-08-07T22:25:11.153Z,36.30
2022-08-07T22:28:07.390Z,35.46
2022-08-07T22:30:52.940Z,35.95
2022-08-07T22:33:53.600Z,36.27
2022-08-07T22:36:35.894Z,36.14
2022-08-07T22:39:23.440Z,35.90
2022-08-07T22:42:03.599Z,35.80
2022-08-07T22:44:58.373Z,35.72
2022-08-07T22:47:56.978Z,36.96
2022-08-07T22:50:52.019Z,36.91
2022-08-07T22:54:05.519Z,36.04
2022-08-07T22:56:34.411Z,36.03
2022-08-07T22:59:01.742Z,36.04
2022-08-07T23:01:49.549Z,36.81
2022-08-07T23:04:56.807Z,37.09
2022-08-07T23:07:58.150Z,37.75
2022-08-07T23:10:41.262Z,37.94
2022-08-07T23:13:29.305Z,37.28
2022-08-07T23:16:46.841Z,38.81
2022-08-07T23:19:51.147Z,39.06
2022-08-07T23:22:45.141Z,39.33
2022-08-07T23:25:30.745Z,39.36
2022-08-07T23:28:22.947Z,38.33
2022-08-07T23:31:42.654Z,38.72
2022-08-07T23:34:41.136Z,37.90
2022-08-07T23:37:22.965Z,37.99
2022-08-07T23:40:23.952Z,38.34
2022-08-07T23:43:17.076Z,38.93
2022-08-07T23:46:03.481Z,39.67
2022-08-07T23:48:56.249Z,39.44
2022-08-07T23:52:57.891Z,38.86
2022-08-07T23:54:43.816Z,37.67
2022-08-07T23:57:20.429Z,38.32
